sensor_id;sensor_type;location;lat;lon;timestamp;P1;durP1;ratioP1;P2;durP2;ratioP2
78989;SDS011;68390;52.130;21.218;2023-09-18T00:01:36;13.75;;;9.18;;
78989;SDS011;68390;52.130;21.218;2023-09-18T00:04:04;12.40;;;8.63;;
78989;SDS011;68390;52.130;21.218;2023-09-18T00:06:30;16.05;;;9.13;;
78989;SDS011;68390;52.130;21.218;2023-09-18T00:08:55;11.35;;;8.07;;
78989;SDS011;68390;52.130;21.218;2023-09-18T00:11:21;12.30;;;8.80;;
78989;SDS011;68390;52.130;21.218;2023-09-18T00:13:46;13.68;;;8.85;;
78989;SDS011;68390;52.130;21.218;2023-09-18T00:16:11;13.73;;;8.98;;
78989;SDS011;68390;52.130;21.218;2023-09-18T00:18:37;12.15;;;8.38;;
78989;SDS011;68390;52.130;21.218;2023-09-18T00:21:03;10.50;;;8.30;;
78989;SDS011;68390;52.130;21.218;2023-09-18T00:23:29;10.93;;;8.20;;
78989;SDS011;68390;52.130;21.218;2023-09-18T00:25:54;12.52;;;8.52;;
78989;SDS011;68390;52.130;21.218;2023-09-18T00:28:20;10.30;;;7.85;;
78989;SDS011;68390;52.130;21.218;2023-09-18T00:30:49;11.95;;;8.48;;
78989;SDS011;68390;52.130;21.218;2023-09-18T00:33:15;10.93;;;7.68;;
78989;SDS011;68390;52.130;21.218;2023-09-18T00:35:44;12.20;;;8.73;;
78989;SDS011;68390;52.130;21.218;2023-09-18T00:38:10;11.52;;;9.52;;
78989;SDS011;68390;52.130;21.218;2023-09-18T00:40:36;13.40;;;8.90;;
78989;SDS011;68390;52.130;21.218;2023-09-18T00:43:01;14.70;;;9.98;;
78989;SDS011;68390;52.130;21.218;2023-09-18T00:45:27;12.65;;;8.57;;
78989;SDS011;68390;52.130;21.218;2023-09-18T00:47:52;12.27;;;9.18;;
78989;SDS011;68390;52.130;21.218;2023-09-18T00:50:19;16.08;;;11.07;;
78989;SDS011;68390;52.130;21.218;2023-09-18T00:52:45;13.80;;;10.27;;
78989;SDS011;68390;52.130;21.218;2023-09-18T00:55:10;16.67;;;10.70;;
78989;SDS011;68390;52.130;21.218;2023-09-18T00:57:36;15.30;;;10.55;;
78989;SDS011;68390;52.130;21.218;2023-09-18T01:00:03;11.48;;;8.95;;
78989;SDS011;68390;52.130;21.218;2023-09-18T01:02:30;16.20;;;10.95;;
78989;SDS011;68390;52.130;21.218;2023-09-18T01:04:56;22.15;;;11.07;;
78989;SDS011;68390;52.130;21.218;2023-09-18T01:07:22;12.57;;;9.77;;
78989;SDS011;68390;52.130;21.218;2023-09-18T01:09:48;14.55;;;9.98;;
78989;SDS011;68390;52.130;21.218;2023-09-18T01:15:12;15.93;;;10.63;;
78989;SDS011;68390;52.130;21.218;2023-09-18T01:17:43;15.88;;;10.45;;
78989;SDS011;68390;52.130;21.218;2023-09-18T01:20:10;14.40;;;10.43;;
78989;SDS011;68390;52.130;21.218;2023-09-18T01:22:36;13.60;;;9.77;;
78989;SDS011;68390;52.130;21.218;2023-09-18T01:25:01;13.93;;;10.23;;
78989;SDS011;68390;52.130;21.218;2023-09-18T01:27:27;13.88;;;9.45;;
78989;SDS011;68390;52.130;21.218;2023-09-18T01:29:53;14.98;;;10.27;;
78989;SDS011;68390;52.130;21.218;2023-09-18T01:32:18;15.45;;;9.77;;
78989;SDS011;68390;52.130;21.218;2023-09-18T01:34:45;14.88;;;10.23;;
78989;SDS011;68390;52.130;21.218;2023-09-18T01:37:12;15.50;;;10.30;;
78989;SDS011;68390;52.130;21.218;2023-09-18T01:39:40;14.05;;;10.43;;
78989;SDS011;68390;52.130;21.218;2023-09-18T01:42:06;15.52;;;11.27;;
78989;SDS011;68390;52.130;21.218;2023-09-18T01:44:34;15.55;;;9.05;;
78989;SDS011;68390;52.130;21.218;2023-09-18T01:47:02;14.45;;;9.98;;
78989;SDS011;68390;52.130;21.218;2023-09-18T01:49:29;13.95;;;10.32;;
78989;SDS011;68390;52.130;21.218;2023-09-18T01:51:57;16.90;;;11.63;;
78989;SDS011;68390;52.130;21.218;2023-09-18T01:54:23;16.95;;;11.32;;
78989;SDS011;68390;52.130;21.218;2023-09-18T01:56:49;17.42;;;11.00;;
78989;SDS011;68390;52.130;21.218;2023-09-18T01:59:15;14.57;;;10.27;;
78989;SDS011;68390;52.130;21.218;2023-09-18T02:01:41;13.57;;;9.43;;
78989;SDS011;68390;52.130;21.218;2023-09-18T02:04:06;17.83;;;12.10;;
78989;SDS011;68390;52.130;21.218;2023-09-18T02:06:31;12.45;;;9.57;;
78989;SDS011;68390;52.130;21.218;2023-09-18T02:08:57;18.15;;;11.07;;
78989;SDS011;68390;52.130;21.218;2023-09-18T02:11:22;14.03;;;10.40;;
78989;SDS011;68390;52.130;21.218;2023-09-18T02:13:47;11.85;;;8.60;;
78989;SDS011;68390;52.130;21.218;2023-09-18T02:16:13;16.40;;;11.32;;
78989;SDS011;68390;52.130;21.218;2023-09-18T02:18:38;14.15;;;9.65;;
78989;SDS011;68390;52.130;21.218;2023-09-18T02:21:03;16.67;;;11.13;;
78989;SDS011;68390;52.130;21.218;2023-09-18T02:23:29;12.63;;;8.95;;
78989;SDS011;68390;52.130;21.218;2023-09-18T02:25:57;13.52;;;9.40;;
78989;SDS011;68390;52.130;21.218;2023-09-18T02:28:23;15.75;;;10.93;;
78989;SDS011;68390;52.130;21.218;2023-09-18T02:30:49;13.82;;;10.13;;
78989;SDS011;68390;52.130;21.218;2023-09-18T02:33:15;15.20;;;11.20;;
78989;SDS011;68390;52.130;21.218;2023-09-18T02:35:41;14.38;;;9.63;;
78989;SDS011;68390;52.130;21.218;2023-09-18T02:38:08;15.80;;;10.68;;
78989;SDS011;68390;52.130;21.218;2023-09-18T02:40:33;16.63;;;12.35;;
78989;SDS011;68390;52.130;21.218;2023-09-18T02:43:00;15.98;;;10.50;;
78989;SDS011;68390;52.130;21.218;2023-09-18T02:45:27;17.13;;;10.43;;
78989;SDS011;68390;52.130;21.218;2023-09-18T02:47:52;15.63;;;10.95;;
78989;SDS011;68390;52.130;21.218;2023-09-18T02:50:18;15.07;;;11.23;;
78989;SDS011;68390;52.130;21.218;2023-09-18T02:52:43;13.57;;;9.80;;
78989;SDS011;68390;52.130;21.218;2023-09-18T02:55:08;15.53;;;10.97;;
78989;SDS011;68390;52.130;21.218;2023-09-18T02:57:35;18.55;;;13.27;;
78989;SDS011;68390;52.130;21.218;2023-09-18T03:00:00;18.85;;;13.20;;
78989;SDS011;68390;52.130;21.218;2023-09-18T03:02:26;20.52;;;12.48;;
78989;SDS011;68390;52.130;21.218;2023-09-18T03:04:51;17.07;;;12.17;;
78989;SDS011;68390;52.130;21.218;2023-09-18T03:07:16;19.65;;;13.52;;
78989;SDS011;68390;52.130;21.218;2023-09-18T03:09:42;22.83;;;14.68;;
78989;SDS011;68390;52.130;21.218;2023-09-18T03:12:08;18.23;;;12.43;;
78989;SDS011;68390;52.130;21.218;2023-09-18T03:14:33;18.63;;;12.82;;
78989;SDS011;68390;52.130;21.218;2023-09-18T03:16:59;16.33;;;11.77;;
78989;SDS011;68390;52.130;21.218;2023-09-18T03:19:24;22.08;;;16.48;;
78989;SDS011;68390;52.130;21.218;2023-09-18T03:21:51;27.15;;;16.77;;
78989;SDS011;68390;52.130;21.218;2023-09-18T03:24:17;25.20;;;15.90;;
78989;SDS011;68390;52.130;21.218;2023-09-18T03:26:42;21.27;;;13.75;;
78989;SDS011;68390;52.130;21.218;2023-09-18T03:29:08;21.27;;;15.40;;
78989;SDS011;68390;52.130;21.218;2023-09-18T03:31:33;24.67;;;15.70;;
78989;SDS011;68390;52.130;21.218;2023-09-18T03:33:58;19.33;;;13.50;;
78989;SDS011;68390;52.130;21.218;2023-09-18T03:36:24;18.53;;;14.20;;
78989;SDS011;68390;52.130;21.218;2023-09-18T03:38:49;23.70;;;14.80;;
78989;SDS011;68390;52.130;21.218;2023-09-18T03:41:14;18.83;;;13.73;;
78989;SDS011;68390;52.130;21.218;2023-09-18T03:43:40;19.67;;;12.80;;
78989;SDS011;68390;52.130;21.218;2023-09-18T03:46:06;20.42;;;12.30;;
78989;SDS011;68390;52.130;21.218;2023-09-18T03:48:32;20.75;;;14.82;;
78989;SDS011;68390;52.130;21.218;2023-09-18T03:51:02;22.27;;;13.75;;
78989;SDS011;68390;52.130;21.218;2023-09-18T03:53:35;22.40;;;14.07;;
78989;SDS011;68390;52.130;21.218;2023-09-18T03:56:00;24.17;;;14.60;;
78989;SDS011;68390;52.130;21.218;2023-09-18T03:58:26;36.38;;;15.05;;
78989;SDS011;68390;52.130;21.218;2023-09-18T04:00:52;39.47;;;15.75;;
78989;SDS011;68390;52.130;21.218;2023-09-18T04:03:17;22.33;;;12.57;;
78989;SDS011;68390;52.130;21.218;2023-09-18T04:05:44;21.90;;;12.57;;
78989;SDS011;68390;52.130;21.218;2023-09-18T04:08:10;26.75;;;13.77;;
78989;SDS011;68390;52.130;21.218;2023-09-18T04:10:36;19.98;;;13.27;;
78989;SDS011;68390;52.130;21.218;2023-09-18T04:13:02;18.33;;;11.57;;
78989;SDS011;68390;52.130;21.218;2023-09-18T04:15:27;20.15;;;12.10;;
78989;SDS011;68390;52.130;21.218;2023-09-18T04:17:55;20.98;;;13.55;;
78989;SDS011;68390;52.130;21.218;2023-09-18T04:20:20;18.27;;;12.60;;
78989;SDS011;68390;52.130;21.218;2023-09-18T04:22:46;15.10;;;10.17;;
78989;SDS011;68390;52.130;21.218;2023-09-18T04:25:16;15.48;;;11.27;;
78989;SDS011;68390;52.130;21.218;2023-09-18T04:27:41;27.25;;;14.93;;
78989;SDS011;68390;52.130;21.218;2023-09-18T04:30:07;19.58;;;13.85;;
78989;SDS011;68390;52.130;21.218;2023-09-18T04:32:36;17.35;;;11.38;;
78989;SDS011;68390;52.130;21.218;2023-09-18T04:35:02;18.65;;;13.55;;
78989;SDS011;68390;52.130;21.218;2023-09-18T04:37:30;18.38;;;13.40;;
78989;SDS011;68390;52.130;21.218;2023-09-18T04:39:55;21.63;;;14.18;;
78989;SDS011;68390;52.130;21.218;2023-09-18T04:42:22;18.88;;;13.50;;
78989;SDS011;68390;52.130;21.218;2023-09-18T04:44:48;21.60;;;14.30;;
78989;SDS011;68390;52.130;21.218;2023-09-18T04:47:13;22.20;;;15.80;;
78989;SDS011;68390;52.130;21.218;2023-09-18T04:49:38;25.45;;;15.77;;
78989;SDS011;68390;52.130;21.218;2023-09-18T04:52:04;21.98;;;15.50;;
78989;SDS011;68390;52.130;21.218;2023-09-18T04:54:30;26.80;;;17.80;;
78989;SDS011;68390;52.130;21.218;2023-09-18T04:56:56;24.38;;;16.83;;
78989;SDS011;68390;52.130;21.218;2023-09-18T04:59:21;24.52;;;16.77;;
78989;SDS011;68390;52.130;21.218;2023-09-18T05:01:46;25.80;;;17.15;;
78989;SDS011;68390;52.130;21.218;2023-09-18T05:04:12;22.05;;;14.35;;
78989;SDS011;68390;52.130;21.218;2023-09-18T05:06:37;25.45;;;16.77;;
78989;SDS011;68390;52.130;21.218;2023-09-18T05:09:04;19.27;;;13.32;;
78989;SDS011;68390;52.130;21.218;2023-09-18T05:11:30;18.77;;;12.80;;
78989;SDS011;68390;52.130;21.218;2023-09-18T05:13:56;22.52;;;15.55;;
78989;SDS011;68390;52.130;21.218;2023-09-18T05:16:21;18.55;;;12.48;;
78989;SDS011;68390;52.130;21.218;2023-09-18T05:18:47;20.85;;;14.63;;
78989;SDS011;68390;52.130;21.218;2023-09-18T05:21:12;20.23;;;14.85;;
78989;SDS011;68390;52.130;21.218;2023-09-18T05:23:38;16.60;;;11.38;;
78989;SDS011;68390;52.130;21.218;2023-09-18T05:26:03;18.20;;;11.88;;
78989;SDS011;68390;52.130;21.218;2023-09-18T05:28:29;21.77;;;13.32;;
78989;SDS011;68390;52.130;21.218;2023-09-18T05:30:55;19.50;;;13.63;;
78989;SDS011;68390;52.130;21.218;2023-09-18T05:33:20;18.55;;;11.60;;
78989;SDS011;68390;52.130;21.218;2023-09-18T05:35:45;17.35;;;11.25;;
78989;SDS011;68390;52.130;21.218;2023-09-18T05:38:11;21.33;;;12.85;;
78989;SDS011;68390;52.130;21.218;2023-09-18T05:40:38;19.77;;;13.10;;
78989;SDS011;68390;52.130;21.218;2023-09-18T05:43:04;22.13;;;13.50;;
78989;SDS011;68390;52.130;21.218;2023-09-18T05:45:29;13.55;;;10.18;;
78989;SDS011;68390;52.130;21.218;2023-09-18T05:47:56;15.43;;;10.68;;
78989;SDS011;68390;52.130;21.218;2023-09-18T05:50:28;17.88;;;12.57;;
78989;SDS011;68390;52.130;21.218;2023-09-18T05:52:58;19.58;;;12.80;;
78989;SDS011;68390;52.130;21.218;2023-09-18T05:55:24;19.17;;;12.85;;
78989;SDS011;68390;52.130;21.218;2023-09-18T05:57:51;18.75;;;13.50;;
78989;SDS011;68390;52.130;21.218;2023-09-18T06:00:16;17.73;;;12.13;;
78989;SDS011;68390;52.130;21.218;2023-09-18T06:02:43;16.73;;;12.23;;
78989;SDS011;68390;52.130;21.218;2023-09-18T06:05:10;16.65;;;12.45;;
78989;SDS011;68390;52.130;21.218;2023-09-18T06:07:36;16.08;;;12.05;;
78989;SDS011;68390;52.130;21.218;2023-09-18T06:10:02;15.68;;;10.45;;
78989;SDS011;68390;52.130;21.218;2023-09-18T06:12:28;14.68;;;11.55;;
78989;SDS011;68390;52.130;21.218;2023-09-18T06:14:55;17.25;;;12.68;;
78989;SDS011;68390;52.130;21.218;2023-09-18T06:17:20;16.27;;;12.02;;
78989;SDS011;68390;52.130;21.218;2023-09-18T06:19:46;14.52;;;11.40;;
78989;SDS011;68390;52.130;21.218;2023-09-18T06:22:12;17.73;;;13.15;;
78989;SDS011;68390;52.130;21.218;2023-09-18T06:24:37;15.43;;;11.25;;
78989;SDS011;68390;52.130;21.218;2023-09-18T06:27:03;19.20;;;14.05;;
78989;SDS011;68390;52.130;21.218;2023-09-18T06:29:29;17.98;;;12.82;;
78989;SDS011;68390;52.130;21.218;2023-09-18T06:31:55;20.63;;;13.35;;
78989;SDS011;68390;52.130;21.218;2023-09-18T06:34:21;20.35;;;13.80;;
78989;SDS011;68390;52.130;21.218;2023-09-18T06:36:46;19.27;;;13.65;;
78989;SDS011;68390;52.130;21.218;2023-09-18T06:39:11;18.70;;;13.13;;
78989;SDS011;68390;52.130;21.218;2023-09-18T06:41:37;20.48;;;13.88;;
78989;SDS011;68390;52.130;21.218;2023-09-18T06:44:02;21.65;;;14.35;;
78989;SDS011;68390;52.130;21.218;2023-09-18T06:46:31;19.20;;;12.65;;
78989;SDS011;68390;52.130;21.218;2023-09-18T06:48:57;24.65;;;14.02;;
78989;SDS011;68390;52.130;21.218;2023-09-18T06:51:25;20.35;;;13.18;;
78989;SDS011;68390;52.130;21.218;2023-09-18T06:53:52;19.63;;;13.95;;
78989;SDS011;68390;52.130;21.218;2023-09-18T06:56:18;16.88;;;13.75;;
78989;SDS011;68390;52.130;21.218;2023-09-18T06:58:44;16.25;;;12.52;;
78989;SDS011;68390;52.130;21.218;2023-09-18T07:01:09;18.50;;;13.15;;
78989;SDS011;68390;52.130;21.218;2023-09-18T07:03:35;18.02;;;12.25;;
78989;SDS011;68390;52.130;21.218;2023-09-18T07:06:02;18.10;;;13.15;;
78989;SDS011;68390;52.130;21.218;2023-09-18T07:08:27;18.50;;;12.93;;
78989;SDS011;68390;52.130;21.218;2023-09-18T07:10:53;18.02;;;12.45;;
78989;SDS011;68390;52.130;21.218;2023-09-18T07:13:18;19.17;;;11.75;;
78989;SDS011;68390;52.130;21.218;2023-09-18T07:15:43;16.05;;;12.07;;
78989;SDS011;68390;52.130;21.218;2023-09-18T07:18:09;16.60;;;11.38;;
78989;SDS011;68390;52.130;21.218;2023-09-18T07:20:39;18.92;;;11.93;;
78989;SDS011;68390;52.130;21.218;2023-09-18T07:23:11;18.35;;;12.20;;
78989;SDS011;68390;52.130;21.218;2023-09-18T07:25:36;20.67;;;13.52;;
78989;SDS011;68390;52.130;21.218;2023-09-18T07:28:05;15.73;;;12.32;;
78989;SDS011;68390;52.130;21.218;2023-09-18T07:30:31;18.52;;;11.85;;
78989;SDS011;68390;52.130;21.218;2023-09-18T07:32:56;17.92;;;12.57;;
78989;SDS011;68390;52.130;21.218;2023-09-18T07:35:22;16.85;;;12.50;;
78989;SDS011;68390;52.130;21.218;2023-09-18T07:37:48;22.85;;;13.25;;
78989;SDS011;68390;52.130;21.218;2023-09-18T07:40:14;17.60;;;13.15;;
78989;SDS011;68390;52.130;21.218;2023-09-18T07:42:40;20.65;;;12.55;;
78989;SDS011;68390;52.130;21.218;2023-09-18T07:45:06;22.85;;;13.30;;
78989;SDS011;68390;52.130;21.218;2023-09-18T07:47:32;20.92;;;13.02;;
78989;SDS011;68390;52.130;21.218;2023-09-18T07:49:57;17.90;;;13.13;;
78989;SDS011;68390;52.130;21.218;2023-09-18T07:52:22;21.05;;;13.13;;
78989;SDS011;68390;52.130;21.218;2023-09-18T07:54:48;18.55;;;12.88;;
78989;SDS011;68390;52.130;21.218;2023-09-18T07:57:13;20.27;;;13.68;;
78989;SDS011;68390;52.130;21.218;2023-09-18T07:59:38;18.23;;;12.73;;
78989;SDS011;68390;52.130;21.218;2023-09-18T08:02:06;18.02;;;13.05;;
78989;SDS011;68390;52.130;21.218;2023-09-18T08:04:31;16.50;;;13.10;;
78989;SDS011;68390;52.130;21.218;2023-09-18T08:06:57;18.50;;;14.32;;
78989;SDS011;68390;52.130;21.218;2023-09-18T08:09:22;18.17;;;14.25;;
78989;SDS011;68390;52.130;21.218;2023-09-18T08:11:48;14.90;;;13.27;;
78989;SDS011;68390;52.130;21.218;2023-09-18T08:14:15;16.42;;;13.65;;
78989;SDS011;68390;52.130;21.218;2023-09-18T08:16:40;18.92;;;13.93;;
78989;SDS011;68390;52.130;21.218;2023-09-18T08:19:06;15.55;;;13.52;;
78989;SDS011;68390;52.130;21.218;2023-09-18T08:21:32;20.90;;;14.30;;
78989;SDS011;68390;52.130;21.218;2023-09-18T08:23:57;19.40;;;13.95;;
78989;SDS011;68390;52.130;21.218;2023-09-18T08:26:23;16.90;;;12.85;;
78989;SDS011;68390;52.130;21.218;2023-09-18T08:28:48;18.10;;;13.60;;
78989;SDS011;68390;52.130;21.218;2023-09-18T08:31:13;13.70;;;12.27;;
78989;SDS011;68390;52.130;21.218;2023-09-18T08:33:41;18.30;;;12.13;;
78989;SDS011;68390;52.130;21.218;2023-09-18T08:36:07;16.25;;;12.75;;
78989;SDS011;68390;52.130;21.218;2023-09-18T08:38:32;18.85;;;12.38;;
78989;SDS011;68390;52.130;21.218;2023-09-18T08:40:58;15.25;;;11.82;;
78989;SDS011;68390;52.130;21.218;2023-09-18T08:43:24;16.45;;;12.35;;
78989;SDS011;68390;52.130;21.218;2023-09-18T08:45:51;17.23;;;11.68;;
78989;SDS011;68390;52.130;21.218;2023-09-18T08:48:18;13.40;;;10.95;;
78989;SDS011;68390;52.130;21.218;2023-09-18T08:50:45;14.30;;;11.20;;
78989;SDS011;68390;52.130;21.218;2023-09-18T08:53:11;13.52;;;10.77;;
78989;SDS011;68390;52.130;21.218;2023-09-18T08:55:37;11.52;;;10.30;;
78989;SDS011;68390;52.130;21.218;2023-09-18T08:58:03;12.95;;;10.98;;
78989;SDS011;68390;52.130;21.218;2023-09-18T09:00:29;14.25;;;10.48;;
78989;SDS011;68390;52.130;21.218;2023-09-18T09:02:54;15.45;;;11.10;;
78989;SDS011;68390;52.130;21.218;2023-09-18T09:05:23;14.00;;;11.35;;
78989;SDS011;68390;52.130;21.218;2023-09-18T09:07:49;17.23;;;10.70;;
78989;SDS011;68390;52.130;21.218;2023-09-18T09:10:15;15.48;;;10.35;;
78989;SDS011;68390;52.130;21.218;2023-09-18T09:15:19;12.68;;;9.82;;
78989;SDS011;68390;52.130;21.218;2023-09-18T09:17:49;13.10;;;9.52;;
78989;SDS011;68390;52.130;21.218;2023-09-18T09:20:16;15.40;;;9.60;;
78989;SDS011;68390;52.130;21.218;2023-09-18T09:22:43;10.82;;;8.18;;
78989;SDS011;68390;52.130;21.218;2023-09-18T09:25:25;12.05;;;8.63;;
78989;SDS011;68390;52.130;21.218;2023-09-18T09:27:53;11.63;;;8.32;;
78989;SDS011;68390;52.130;21.218;2023-09-18T09:30:20;12.18;;;8.80;;
78989;SDS011;68390;52.130;21.218;2023-09-18T09:32:47;11.38;;;8.85;;
78989;SDS011;68390;52.130;21.218;2023-09-18T09:35:21;11.52;;;8.40;;
78989;SDS011;68390;52.130;21.218;2023-09-18T09:37:49;12.60;;;7.68;;
78989;SDS011;68390;52.130;21.218;2023-09-18T09:40:16;12.60;;;8.00;;
78989;SDS011;68390;52.130;21.218;2023-09-18T09:42:44;9.18;;;7.40;;
78989;SDS011;68390;52.130;21.218;2023-09-18T09:45:11;11.68;;;6.75;;
78989;SDS011;68390;52.130;21.218;2023-09-18T09:47:38;8.88;;;6.75;;
78989;SDS011;68390;52.130;21.218;2023-09-18T09:50:07;11.02;;;6.85;;
78989;SDS011;68390;52.130;21.218;2023-09-18T09:52:43;7.15;;;6.18;;
78989;SDS011;68390;52.130;21.218;2023-09-18T09:55:33;11.50;;;6.80;;
78989;SDS011;68390;52.130;21.218;2023-09-18T09:58:03;6.50;;;5.63;;
78989;SDS011;68390;52.130;21.218;2023-09-18T10:03:06;7.05;;;5.32;;
78989;SDS011;68390;52.130;21.218;2023-09-18T10:05:34;6.60;;;5.35;;
78989;SDS011;68390;52.130;21.218;2023-09-18T10:08:08;5.95;;;4.70;;
78989;SDS011;68390;52.130;21.218;2023-09-18T10:10:38;8.07;;;4.80;;
78989;SDS011;68390;52.130;21.218;2023-09-18T10:13:09;5.90;;;4.70;;
78989;SDS011;68390;52.130;21.218;2023-09-18T10:15:37;7.35;;;4.70;;
78989;SDS011;68390;52.130;21.218;2023-09-18T10:18:08;7.07;;;5.10;;
78989;SDS011;68390;52.130;21.218;2023-09-18T10:20:42;7.28;;;5.07;;
78989;SDS011;68390;52.130;21.218;2023-09-18T10:23:12;5.80;;;4.85;;
78989;SDS011;68390;52.130;21.218;2023-09-18T10:25:50;7.55;;;4.80;;
78989;SDS011;68390;52.130;21.218;2023-09-18T10:28:20;6.40;;;5.20;;
78989;SDS011;68390;52.130;21.218;2023-09-18T10:33:16;7.40;;;4.50;;
78989;SDS011;68390;52.130;21.218;2023-09-18T10:35:42;6.03;;;4.00;;
78989;SDS011;68390;52.130;21.218;2023-09-18T10:38:08;6.13;;;4.10;;
78989;SDS011;68390;52.130;21.218;2023-09-18T10:40:35;5.28;;;4.00;;
78989;SDS011;68390;52.130;21.218;2023-09-18T10:43:02;5.60;;;3.90;;
78989;SDS011;68390;52.130;21.218;2023-09-18T10:45:30;5.22;;;4.00;;
78989;SDS011;68390;52.130;21.218;2023-09-18T10:47:56;5.90;;;3.90;;
78989;SDS011;68390;52.130;21.218;2023-09-18T10:50:26;5.15;;;4.13;;
78989;SDS011;68390;52.130;21.218;2023-09-18T10:52:52;4.93;;;4.43;;
78989;SDS011;68390;52.130;21.218;2023-09-18T10:55:18;6.15;;;4.28;;
78989;SDS011;68390;52.130;21.218;2023-09-18T10:57:55;5.93;;;4.07;;
78989;SDS011;68390;52.130;21.218;2023-09-18T11:00:27;7.70;;;5.18;;
78989;SDS011;68390;52.130;21.218;2023-09-18T11:03:08;9.07;;;5.78;;
78989;SDS011;68390;52.130;21.218;2023-09-18T11:05:36;10.02;;;5.63;;
78989;SDS011;68390;52.130;21.218;2023-09-18T11:11:08;6.28;;;5.00;;
78989;SDS011;68390;52.130;21.218;2023-09-18T11:13:41;10.75;;;6.20;;
78989;SDS011;68390;52.130;21.218;2023-09-18T11:18:39;9.63;;;6.03;;
78989;SDS011;68390;52.130;21.218;2023-09-18T11:21:08;8.27;;;5.43;;
78989;SDS011;68390;52.130;21.218;2023-09-18T11:23:37;6.47;;;5.45;;
78989;SDS011;68390;52.130;21.218;2023-09-18T11:26:10;6.55;;;5.07;;
78989;SDS011;68390;52.130;21.218;2023-09-18T11:28:37;8.10;;;5.40;;
78989;SDS011;68390;52.130;21.218;2023-09-18T11:31:03;20.70;;;7.15;;
78989;SDS011;68390;52.130;21.218;2023-09-18T11:33:36;12.50;;;7.00;;
78989;SDS011;68390;52.130;21.218;2023-09-18T11:36:04;11.02;;;6.78;;
78989;SDS011;68390;52.130;21.218;2023-09-18T11:38:50;7.13;;;5.70;;
78989;SDS011;68390;52.130;21.218;2023-09-18T11:41:22;6.47;;;5.30;;
78989;SDS011;68390;52.130;21.218;2023-09-18T11:43:52;6.00;;;5.40;;
78989;SDS011;68390;52.130;21.218;2023-09-18T11:46:49;8.43;;;5.85;;
78989;SDS011;68390;52.130;21.218;2023-09-18T11:49:21;7.10;;;5.85;;
78989;SDS011;68390;52.130;21.218;2023-09-18T11:51:48;10.88;;;6.00;;
78989;SDS011;68390;52.130;21.218;2023-09-18T11:54:15;8.10;;;6.03;;
78989;SDS011;68390;52.130;21.218;2023-09-18T11:56:42;8.13;;;5.97;;
78989;SDS011;68390;52.130;21.218;2023-09-18T11:59:08;9.60;;;6.03;;
78989;SDS011;68390;52.130;21.218;2023-09-18T12:01:35;8.52;;;6.25;;
78989;SDS011;68390;52.130;21.218;2023-09-18T12:04:01;27.42;;;11.23;;
78989;SDS011;68390;52.130;21.218;2023-09-18T12:06:32;10.88;;;7.30;;
78989;SDS011;68390;52.130;21.218;2023-09-18T12:08:58;7.55;;;5.90;;
78989;SDS011;68390;52.130;21.218;2023-09-18T12:11:24;7.97;;;6.00;;
78989;SDS011;68390;52.130;21.218;2023-09-18T12:13:50;7.82;;;5.80;;
78989;SDS011;68390;52.130;21.218;2023-09-18T12:16:16;7.22;;;6.10;;
78989;SDS011;68390;52.130;21.218;2023-09-18T12:18:45;9.85;;;6.32;;
78989;SDS011;68390;52.130;21.218;2023-09-18T12:21:13;8.75;;;6.35;;
78989;SDS011;68390;52.130;21.218;2023-09-18T12:23:40;8.00;;;6.40;;
78989;SDS011;68390;52.130;21.218;2023-09-18T12:26:10;7.38;;;6.35;;
78989;SDS011;68390;52.130;21.218;2023-09-18T12:28:38;9.00;;;6.03;;
78989;SDS011;68390;52.130;21.218;2023-09-18T12:31:14;11.43;;;6.28;;
78989;SDS011;68390;52.130;21.218;2023-09-18T12:33:40;9.25;;;6.13;;
78989;SDS011;68390;52.130;21.218;2023-09-18T12:36:08;7.55;;;6.50;;
78989;SDS011;68390;52.130;21.218;2023-09-18T12:38:34;7.95;;;6.50;;
78989;SDS011;68390;52.130;21.218;2023-09-18T12:41:02;7.68;;;6.07;;
78989;SDS011;68390;52.130;21.218;2023-09-18T12:43:39;10.88;;;6.43;;
78989;SDS011;68390;52.130;21.218;2023-09-18T12:46:09;7.53;;;5.95;;
78989;SDS011;68390;52.130;21.218;2023-09-18T12:48:38;7.28;;;6.10;;
78989;SDS011;68390;52.130;21.218;2023-09-18T12:51:11;7.53;;;6.30;;
78989;SDS011;68390;52.130;21.218;2023-09-18T12:53:37;10.43;;;6.82;;
78989;SDS011;68390;52.130;21.218;2023-09-18T12:58:32;6.93;;;5.95;;
78989;SDS011;68390;52.130;21.218;2023-09-18T13:00:58;8.95;;;6.10;;
78989;SDS011;68390;52.130;21.218;2023-09-18T13:03:32;10.07;;;6.32;;
78989;SDS011;68390;52.130;21.218;2023-09-18T13:06:11;11.10;;;6.63;;
78989;SDS011;68390;52.130;21.218;2023-09-18T13:08:41;11.88;;;7.25;;
78989;SDS011;68390;52.130;21.218;2023-09-18T13:11:06;10.25;;;6.53;;
78989;SDS011;68390;52.130;21.218;2023-09-18T13:13:31;12.40;;;7.30;;
78989;SDS011;68390;52.130;21.218;2023-09-18T13:15:58;14.63;;;8.55;;
78989;SDS011;68390;52.130;21.218;2023-09-18T13:18:25;11.88;;;7.70;;
78989;SDS011;68390;52.130;21.218;2023-09-18T13:20:51;11.10;;;6.25;;
78989;SDS011;68390;52.130;21.218;2023-09-18T13:23:17;8.23;;;6.65;;
78989;SDS011;68390;52.130;21.218;2023-09-18T13:25:42;9.02;;;6.90;;
78989;SDS011;68390;52.130;21.218;2023-09-18T13:28:10;11.20;;;6.55;;
78989;SDS011;68390;52.130;21.218;2023-09-18T13:30:37;8.52;;;6.13;;
78989;SDS011;68390;52.130;21.218;2023-09-18T13:35:37;9.93;;;6.45;;
78989;SDS011;68390;52.130;21.218;2023-09-18T13:38:04;8.98;;;6.07;;
78989;SDS011;68390;52.130;21.218;2023-09-18T13:40:33;7.70;;;6.00;;
78989;SDS011;68390;52.130;21.218;2023-09-18T13:43:02;8.10;;;5.80;;
78989;SDS011;68390;52.130;21.218;2023-09-18T13:45:29;24.02;;;9.15;;
78989;SDS011;68390;52.130;21.218;2023-09-18T13:47:55;14.57;;;7.63;;
78989;SDS011;68390;52.130;21.218;2023-09-18T13:50:20;16.92;;;8.25;;
78989;SDS011;68390;52.130;21.218;2023-09-18T13:52:46;11.48;;;7.05;;
78989;SDS011;68390;52.130;21.218;2023-09-18T13:55:11;7.43;;;6.03;;
78989;SDS011;68390;52.130;21.218;2023-09-18T13:57:37;13.10;;;7.05;;
78989;SDS011;68390;52.130;21.218;2023-09-18T14:00:03;8.45;;;6.55;;
78989;SDS011;68390;52.130;21.218;2023-09-18T14:02:32;9.20;;;6.05;;
78989;SDS011;68390;52.130;21.218;2023-09-18T14:04:58;9.05;;;6.63;;
78989;SDS011;68390;52.130;21.218;2023-09-18T14:07:23;7.78;;;6.75;;
78989;SDS011;68390;52.130;21.218;2023-09-18T14:09:48;9.52;;;6.78;;
78989;SDS011;68390;52.130;21.218;2023-09-18T14:12:14;9.55;;;6.82;;
78989;SDS011;68390;52.130;21.218;2023-09-18T14:14:40;7.72;;;5.85;;
78989;SDS011;68390;52.130;21.218;2023-09-18T14:17:07;6.75;;;5.70;;
78989;SDS011;68390;52.130;21.218;2023-09-18T14:19:33;8.10;;;6.07;;
78989;SDS011;68390;52.130;21.218;2023-09-18T14:21:59;7.50;;;6.10;;
78989;SDS011;68390;52.130;21.218;2023-09-18T14:24:29;8.00;;;6.07;;
78989;SDS011;68390;52.130;21.218;2023-09-18T14:26:55;7.82;;;6.68;;
78989;SDS011;68390;52.130;21.218;2023-09-18T14:29:21;10.02;;;5.90;;
78989;SDS011;68390;52.130;21.218;2023-09-18T14:31:46;12.52;;;6.10;;
78989;SDS011;68390;52.130;21.218;2023-09-18T14:34:12;8.45;;;6.53;;
78989;SDS011;68390;52.130;21.218;2023-09-18T14:36:37;8.48;;;6.35;;
78989;SDS011;68390;52.130;21.218;2023-09-18T14:39:04;7.40;;;5.68;;